createdAt,value
2023-04-16T00:01:27.572Z,62.70
2023-04-16T00:03:55.096Z,63.01
2023-04-16T00:06:23.173Z,62.86
2023-04-16T00:08:50.423Z,62.95
2023-04-16T00:11:17.401Z,62.87
2023-04-16T00:13:43.994Z,63.37
2023-04-16T00:16:10.705Z,63.07
2023-04-16T00:18:37.265Z,63.27
2023-04-16T00:21:04.002Z,63.47
2023-04-16T00:23:30.628Z,63.43
2023-04-16T00:25:59.971Z,63.47
2023-04-16T00:28:27.720Z,63.33
2023-04-16T00:30:55.047Z,63.99
2023-04-16T00:33:21.783Z,63.28
2023-04-16T00:35:48.837Z,63.81
2023-04-16T00:38:15.863Z,63.76
2023-04-16T00:40:42.649Z,63.43
2023-04-16T00:43:09.208Z,63.42
2023-04-16T00:45:36.685Z,63.82
2023-04-16T00:48:04.212Z,64.17
2023-04-16T00:50:30.976Z,64.39
2023-04-16T00:52:58.100Z,64.05
2023-04-16T00:55:24.894Z,63.93
2023-04-16T00:57:51.472Z,64.50
2023-04-16T01:00:18.006Z,64.04
2023-04-16T01:02:44.719Z,64.27
2023-04-16T01:05:11.426Z,64.22
2023-04-16T01:07:38.187Z,64.78
2023-04-16T01:10:05.000Z,65.34
2023-04-16T01:12:32.570Z,65.32
2023-04-16T01:14:59.216Z,65.11
2023-04-16T01:17:26.041Z,65.15
2023-04-16T01:19:52.657Z,64.67
2023-04-16T01:22:19.265Z,64.21
2023-04-16T01:24:46.235Z,65.17
2023-04-16T01:27:12.825Z,64.98
2023-04-16T01:29:39.406Z,65.15
2023-04-16T01:32:06.121Z,65.21
2023-04-16T01:34:32.719Z,65.29
2023-04-16T01:36:59.389Z,65.08
2023-04-16T01:39:26.410Z,65.40
2023-04-16T01:41:52.963Z,65.01
2023-04-16T01:44:19.506Z,66.11
2023-04-16T01:46:46.338Z,65.24
2023-04-16T01:49:12.991Z,65.08
2023-04-16T01:51:39.547Z,65.89
2023-04-16T01:54:06.189Z,65.27
2023-04-16T01:56:32.851Z,65.73
2023-04-16T01:58:59.380Z,65.09
2023-04-16T02:01:26.186Z,64.88
2023-04-16T02:03:53.589Z,65.78
2023-04-16T02:06:20.213Z,65.48
2023-04-16T02:08:46.762Z,65.28
2023-04-16T02:11:13.394Z,65.23
2023-04-16T02:13:39.940Z,65.36
2023-04-16T02:16:06.734Z,65.84
2023-04-16T02:18:33.336Z,66.27
2023-04-16T02:21:00.539Z,66.12
2023-04-16T02:23:27.075Z,65.92
2023-04-16T02:25:53.747Z,65.32
2023-04-16T02:28:20.341Z,66.23
2023-04-16T02:30:46.962Z,65.67
2023-04-16T02:33:13.613Z,65.74
2023-04-16T02:35:40.500Z,65.80
2023-04-16T02:38:07.860Z,65.69
2023-04-16T02:40:34.845Z,65.55
2023-04-16T02:43:01.423Z,66.27
2023-04-16T02:45:27.970Z,65.48
2023-04-16T02:47:54.669Z,65.75
2023-04-16T02:50:21.356Z,66.26
2023-04-16T02:52:48.623Z,66.48
2023-04-16T02:55:15.181Z,67.01
2023-04-16T02:57:42.620Z,67.00
2023-04-16T03:00:09.903Z,66.00
2023-04-16T03:02:36.615Z,66.27
2023-04-16T03:05:03.778Z,65.98
2023-04-16T03:07:30.452Z,66.13
2023-04-16T03:09:57.275Z,66.46
2023-04-16T03:12:23.876Z,66.29
2023-04-16T03:14:52.564Z,66.82
2023-04-16T03:17:19.299Z,66.82
2023-04-16T03:19:46.200Z,67.01
2023-04-16T03:22:13.285Z,66.79
2023-04-16T03:24:39.897Z,66.87
2023-04-16T03:27:06.459Z,66.09
2023-04-16T03:29:33.003Z,66.32
2023-04-16T03:31:59.607Z,66.33
2023-04-16T03:34:26.169Z,67.10
2023-04-16T03:36:52.757Z,66.77
2023-04-16T03:39:19.327Z,67.43
2023-04-16T03:41:46.240Z,66.49
2023-04-16T03:44:12.787Z,67.32
2023-04-16T03:46:39.439Z,66.41
2023-04-16T03:49:06.270Z,67.29
2023-04-16T03:51:33.036Z,67.43
2023-04-16T03:53:59.633Z,67.52
2023-04-16T03:56:26.288Z,67.30
2023-04-16T03:58:52.927Z,67.64
2023-04-16T04:01:19.518Z,67.30
2023-04-16T04:03:46.242Z,66.83
2023-04-16T04:06:13.068Z,67.53
2023-04-16T04:08:39.607Z,67.75
2023-04-16T04:11:06.137Z,67.57
2023-04-16T04:13:32.692Z,66.80
2023-04-16T04:15:59.286Z,67.24
2023-04-16T04:18:26.023Z,67.07
2023-04-16T04:20:52.734Z,67.66
2023-04-16T04:23:19.332Z,67.86
2023-04-16T04:25:46.076Z,66.68
2023-04-16T04:28:12.662Z,67.34
2023-04-16T04:30:39.238Z,67.10
2023-04-16T04:33:06.389Z,67.11
2023-04-16T04:35:33.498Z,67.49
2023-04-16T04:38:00.176Z,67.17
2023-04-16T04:40:26.722Z,66.69
2023-04-16T04:42:53.230Z,67.14
2023-04-16T04:45:19.763Z,67.70
2023-04-16T04:47:46.375Z,67.54
2023-04-16T04:50:12.965Z,67.52
2023-04-16T04:52:39.524Z,67.50
2023-04-16T04:55:06.464Z,66.68
2023-04-16T04:57:33.037Z,66.94
2023-04-16T04:59:59.629Z,67.05
2023-04-16T05:02:26.182Z,67.25
2023-04-16T05:04:52.797Z,67.78
2023-04-16T05:07:19.340Z,67.25
2023-04-16T05:09:45.875Z,68.02
2023-04-16T05:12:12.404Z,67.00
2023-04-16T05:14:38.993Z,67.26
2023-04-16T05:17:05.541Z,67.63
2023-04-16T05:19:32.107Z,68.08
2023-04-16T05:21:58.683Z,67.34
2023-04-16T05:24:25.451Z,67.98
2023-04-16T05:26:52.074Z,67.97
2023-04-16T05:29:18.664Z,67.73
2023-04-16T05:31:45.646Z,67.60
2023-04-16T05:34:12.169Z,68.30
2023-04-16T05:36:38.680Z,67.68
2023-04-16T05:39:06.259Z,68.03
2023-04-16T05:41:32.807Z,68.09
2023-04-16T05:43:59.407Z,68.48
2023-04-16T05:46:26.057Z,67.79
2023-04-16T05:48:52.695Z,68.08
2023-04-16T05:51:19.501Z,67.96
2023-04-16T05:53:46.073Z,67.93
2023-04-16T05:56:12.611Z,68.68
2023-04-16T05:58:39.149Z,68.34
2023-04-16T06:01:05.722Z,68.44
2023-04-16T06:03:32.301Z,69.20
2023-04-16T06:05:59.107Z,68.63
2023-04-16T06:08:25.701Z,69.02
2023-04-16T06:10:52.327Z,68.86
2023-04-16T06:13:18.893Z,68.81
2023-04-16T06:15:45.528Z,68.84
2023-04-16T06:18:12.183Z,68.96
2023-04-16T06:20:38.790Z,68.82
2023-04-16T06:23:05.542Z,68.65
2023-04-16T06:25:32.135Z,68.77
2023-04-16T06:27:58.743Z,68.70
2023-04-16T06:30:25.614Z,69.12
2023-04-16T06:32:53.010Z,68.92
2023-04-16T06:35:20.376Z,68.79
2023-04-16T06:37:47.161Z,68.92
2023-04-16T06:40:13.859Z,68.92
2023-04-16T06:42:41.196Z,68.87
2023-04-16T06:45:09.251Z,68.83
2023-04-16T06:47:35.847Z,68.93
2023-04-16T06:50:02.482Z,68.40
2023-04-16T06:52:29.602Z,69.08
2023-04-16T06:54:56.510Z,69.51
2023-04-16T06:57:23.032Z,68.40
2023-04-16T06:59:49.592Z,69.07
2023-04-16T07:02:16.606Z,69.40
2023-04-16T07:04:43.245Z,69.30
2023-04-16T07:07:12.580Z,69.30
2023-04-16T07:09:39.111Z,69.09
2023-04-16T07:12:07.051Z,69.05
2023-04-16T07:14:33.691Z,69.50
2023-04-16T07:17:00.444Z,68.46
2023-04-16T07:19:30.604Z,69.15
2023-04-16T07:21:57.069Z,68.87
2023-04-16T07:24:23.724Z,68.31
2023-04-16T07:26:50.305Z,68.58
2023-04-16T07:29:16.848Z,69.14
2023-04-16T07:31:43.442Z,68.25
2023-04-16T07:34:10.088Z,68.73
2023-04-16T07:36:36.735Z,68.53
2023-04-16T07:39:04.886Z,68.73
2023-04-16T07:41:31.605Z,68.22
2023-04-16T07:43:58.441Z,68.80
2023-04-16T07:46:28.358Z,68.76
2023-04-16T07:48:59.849Z,67.58
2023-04-16T07:51:26.574Z,66.75
2023-04-16T07:53:53.192Z,67.04
2023-04-16T07:56:19.724Z,67.33
2023-04-16T07:58:46.269Z,67.14
2023-04-16T08:01:12.857Z,65.95
2023-04-16T08:03:39.515Z,65.80
2023-04-16T08:06:06.797Z,65.32
2023-04-16T08:08:33.351Z,65.12
2023-04-16T08:11:00.382Z,64.85
2023-04-16T08:13:27.002Z,65.22
2023-04-16T08:15:53.651Z,64.02
2023-04-16T08:18:20.384Z,64.56
2023-04-16T08:20:47.033Z,64.26
2023-04-16T08:23:13.559Z,63.67
2023-04-16T08:25:40.302Z,62.91
2023-04-16T08:28:06.852Z,62.98
2023-04-16T08:30:33.644Z,61.81
2023-04-16T08:33:00.492Z,61.00
2023-04-16T08:35:27.518Z,60.12
2023-04-16T08:37:54.335Z,59.54
2023-04-16T08:40:21.283Z,58.89
2023-04-16T08:42:53.875Z,57.87
2023-04-16T08:45:20.441Z,58.08
2023-04-16T08:47:50.057Z,57.67
2023-04-16T08:50:22.355Z,57.39
2023-04-16T08:52:56.844Z,57.02
2023-04-16T08:55:29.847Z,56.18
2023-04-16T08:57:58.778Z,56.58
2023-04-16T09:00:25.547Z,55.66
2023-04-16T09:02:53.193Z,54.84
2023-04-16T09:05:22.782Z,55.29
2023-04-16T09:07:49.428Z,54.76
2023-04-16T09:10:16.621Z,55.60
2023-04-16T09:12:43.751Z,55.95
2023-04-16T09:15:11.897Z,56.13
2023-04-16T09:17:39.341Z,56.02
2023-04-16T09:20:08.975Z,54.84
2023-04-16T09:22:36.788Z,54.74
2023-04-16T09:25:03.787Z,55.27
2023-04-16T09:27:30.943Z,54.91
2023-04-16T09:29:57.738Z,53.92
2023-04-16T09:32:27.388Z,54.47
2023-04-16T09:37:33.714Z,55.10
2023-04-16T09:40:02.247Z,54.91
2023-04-16T09:42:31.922Z,54.19
2023-04-16T09:45:01.428Z,54.64
2023-04-16T09:47:45.973Z,53.79
2023-04-16T09:50:18.627Z,54.68
2023-04-16T09:52:48.881Z,54.55
2023-04-16T09:55:15.494Z,54.46
2023-04-16T09:57:42.047Z,54.62
2023-04-16T10:00:10.235Z,54.63
2023-04-16T10:02:41.909Z,54.92
2023-04-16T10:05:09.198Z,54.29
2023-04-16T10:07:37.246Z,55.04
2023-04-16T10:10:04.797Z,55.07
2023-04-16T10:12:32.919Z,55.29
2023-04-16T10:15:00.103Z,55.21
2023-04-16T10:17:30.087Z,53.98
2023-04-16T10:19:58.394Z,54.45
2023-04-16T10:22:26.218Z,54.98
2023-04-16T10:24:53.425Z,55.31
2023-04-16T10:27:20.773Z,55.06
2023-04-16T10:29:48.923Z,54.98
2023-04-16T10:32:17.894Z,54.46
2023-04-16T10:34:44.715Z,54.47
2023-04-16T10:37:11.257Z,53.97
2023-04-16T10:39:38.238Z,53.85
2023-04-16T10:42:10.151Z,54.53
2023-04-16T10:44:36.714Z,53.96
2023-04-16T10:47:11.157Z,54.55
2023-04-16T10:49:37.789Z,54.00
2023-04-16T10:52:17.160Z,53.18
2023-04-16T10:54:44.036Z,53.59
2023-04-16T10:57:16.115Z,53.21
2023-04-16T10:59:44.105Z,52.97
2023-04-16T11:02:16.098Z,52.74
2023-04-16T11:04:45.605Z,53.28
2023-04-16T11:10:05.200Z,52.48
2023-04-16T11:15:15.415Z,50.82
2023-04-16T11:17:45.434Z,51.82
2023-04-16T11:22:54.973Z,52.13
2023-04-16T11:27:59.286Z,52.19
2023-04-16T11:30:31.042Z,52.77
2023-04-16T11:32:57.698Z,51.53
2023-04-16T11:35:24.444Z,51.90
2023-04-16T11:37:56.718Z,51.72
2023-04-16T11:40:23.973Z,52.64
2023-04-16T11:42:50.697Z,51.81
2023-04-16T11:45:19.389Z,51.56
2023-04-16T11:47:51.888Z,52.14
2023-04-16T11:52:57.462Z,52.09
2023-04-16T11:55:24.732Z,51.46
2023-04-16T11:57:52.138Z,52.06
2023-04-16T12:00:23.101Z,52.20
2023-04-16T12:02:52.682Z,51.81
2023-04-16T12:05:34.647Z,51.91
2023-04-16T12:08:04.095Z,51.92
2023-04-16T12:10:34.997Z,51.62
2023-04-16T12:13:17.769Z,51.04
2023-04-16T12:15:47.185Z,51.10
2023-04-16T12:18:15.029Z,51.72
2023-04-16T12:20:43.375Z,52.45
2023-04-16T12:23:11.512Z,51.94
2023-04-16T12:25:38.088Z,51.75
2023-04-16T12:28:04.863Z,52.50
2023-04-16T12:30:31.525Z,52.24
2023-04-16T12:33:17.151Z,52.08
2023-04-16T12:35:44.997Z,52.68
2023-04-16T12:38:12.185Z,51.92
2023-04-16T12:40:38.839Z,52.52
2023-04-16T12:43:05.580Z,52.67
2023-04-16T12:45:32.143Z,52.37
2023-04-16T12:47:59.264Z,52.52
2023-04-16T12:50:26.082Z,52.30
2023-04-16T12:52:52.636Z,52.43
2023-04-16T12:55:20.120Z,52.33
2023-04-16T12:57:49.171Z,52.40
2023-04-16T13:00:16.377Z,52.39
2023-04-16T13:02:43.125Z,52.84
2023-04-16T13:05:10.176Z,52.97
2023-04-16T13:07:36.713Z,53.16
2023-04-16T13:10:03.466Z,53.36
2023-04-16T13:12:30.050Z,53.85
2023-04-16T13:14:56.615Z,54.21
2023-04-16T13:17:23.179Z,53.81
2023-04-16T13:19:49.932Z,53.94
2023-04-16T13:22:16.546Z,54.36
2023-04-16T13:24:43.065Z,54.03
2023-04-16T13:27:09.834Z,53.91
2023-04-16T13:29:36.758Z,54.38
2023-04-16T13:32:04.014Z,54.00
2023-04-16T13:34:30.819Z,54.68
2023-04-16T13:36:57.376Z,54.46
2023-04-16T13:39:24.034Z,54.50
2023-04-16T13:41:51.416Z,54.54
2023-04-16T13:44:18.118Z,54.61
2023-04-16T13:46:47.684Z,54.62
2023-04-16T13:49:14.867Z,55.14
2023-04-16T13:51:44.558Z,55.66
2023-04-16T13:54:11.114Z,55.95
2023-04-16T13:56:37.828Z,55.42
2023-04-16T13:59:04.467Z,55.66
2023-04-16T14:01:31.144Z,55.97
2023-04-16T14:03:57.751Z,55.79
2023-04-16T14:06:24.363Z,56.34
2023-04-16T14:08:51.012Z,56.14
2023-04-16T14:11:17.578Z,56.27
2023-04-16T14:13:44.124Z,56.13
2023-04-16T14:16:10.935Z,56.08
2023-04-16T14:18:41.922Z,55.75
2023-04-16T14:21:08.982Z,56.18
2023-04-16T14:23:35.668Z,56.41
2023-04-16T14:26:02.229Z,56.59
2023-04-16T14:28:28.845Z,56.18
2023-04-16T14:30:55.432Z,56.04
2023-04-16T14:33:21.976Z,56.22
2023-04-16T14:35:50.371Z,55.88
2023-04-16T14:38:16.998Z,56.04
2023-04-16T14:40:43.564Z,55.94
2023-04-16T14:43:10.138Z,56.14
2023-04-16T14:45:39.068Z,56.13
2023-04-16T14:48:06.357Z,56.12
2023-04-16T14:50:37.925Z,56.29
2023-04-16T14:53:05.992Z,56.38
2023-04-16T14:55:32.880Z,56.77
2023-04-16T14:57:59.874Z,56.18
2023-04-16T15:00:27.543Z,56.28
2023-04-16T15:02:55.651Z,56.52
2023-04-16T15:05:22.327Z,56.17
2023-04-16T15:07:48.974Z,56.02
2023-04-16T15:10:15.569Z,56.14
2023-04-16T15:12:42.154Z,55.75
2023-04-16T15:15:09.573Z,55.94
2023-04-16T15:17:36.231Z,56.40
2023-04-16T15:20:06.619Z,55.76
2023-04-16T15:22:33.275Z,55.82
2023-04-16T15:24:59.983Z,55.09
2023-04-16T15:27:26.902Z,54.99
2023-04-16T15:29:54.054Z,55.06
2023-04-16T15:32:20.878Z,55.56
2023-04-16T15:34:47.627Z,55.53
2023-04-16T15:37:14.217Z,55.61
2023-04-16T15:39:40.825Z,55.98
2023-04-16T15:42:08.120Z,55.72
2023-04-16T15:44:35.040Z,55.88
2023-04-16T15:47:01.636Z,55.94
2023-04-16T15:49:28.239Z,55.54
2023-04-16T15:51:55.949Z,55.83
2023-04-16T15:54:22.669Z,55.50
2023-04-16T15:56:49.332Z,55.88
2023-04-16T15:59:16.136Z,55.87
2023-04-16T16:01:42.790Z,56.30
2023-04-16T16:04:09.652Z,56.02
2023-04-16T16:06:38.153Z,55.88
2023-04-16T16:09:05.373Z,55.71
2023-04-16T16:11:32.637Z,55.72
2023-04-16T16:14:01.481Z,55.95
2023-04-16T16:16:28.872Z,56.01
2023-04-16T16:18:55.787Z,55.83
2023-04-16T16:21:22.740Z,56.00
2023-04-16T16:23:49.391Z,56.06
2023-04-16T16:26:16.085Z,56.18
2023-04-16T16:28:44.719Z,56.24
2023-04-16T16:31:12.528Z,56.58
2023-04-16T16:33:40.460Z,56.50
2023-04-16T16:36:10.631Z,56.60
2023-04-16T16:38:37.226Z,56.53
2023-04-16T16:41:03.791Z,56.82
2023-04-16T16:43:30.364Z,56.13
2023-04-16T16:45:56.935Z,56.18
2023-04-16T16:48:23.529Z,56.30
2023-04-16T16:50:50.296Z,56.47
2023-04-16T16:53:17.117Z,56.31
2023-04-16T16:55:43.697Z,56.39
2023-04-16T16:58:11.117Z,55.83
2023-04-16T17:00:38.146Z,56.21
2023-04-16T17:03:05.030Z,56.06
2023-04-16T17:05:31.772Z,56.28
2023-04-16T17:07:58.724Z,56.47
2023-04-16T17:10:25.410Z,56.44
2023-04-16T17:12:52.177Z,55.81
2023-04-16T17:15:21.785Z,56.51
2023-04-16T17:17:48.868Z,56.31
2023-04-16T17:20:15.747Z,55.84
2023-04-16T17:22:42.653Z,56.26
2023-04-16T17:25:09.931Z,56.22
2023-04-16T17:27:36.699Z,56.13
2023-04-16T17:30:05.434Z,56.47
2023-04-16T17:32:33.023Z,56.45
2023-04-16T17:35:01.187Z,56.49
2023-04-16T17:37:28.647Z,57.09
2023-04-16T17:39:55.244Z,56.65
2023-04-16T17:42:21.785Z,56.86
2023-04-16T17:44:48.384Z,57.47
2023-04-16T17:47:14.985Z,57.51
2023-04-16T17:49:41.514Z,57.63
2023-04-16T17:52:08.105Z,57.57
2023-04-16T17:54:34.619Z,57.66
2023-04-16T17:57:02.040Z,58.14
2023-04-16T17:59:28.960Z,57.75
2023-04-16T18:01:56.676Z,58.55
2023-04-16T18:04:23.657Z,57.99
2023-04-16T18:06:50.512Z,57.60
2023-04-16T18:09:17.328Z,58.25
2023-04-16T18:11:43.851Z,58.13
2023-04-16T18:14:13.270Z,58.01
2023-04-16T18:16:39.954Z,58.53
2023-04-16T18:19:06.573Z,58.48
2023-04-16T18:21:33.933Z,58.41
2023-04-16T18:24:03.443Z,57.99
2023-04-16T18:26:30.170Z,58.39
2023-04-16T18:28:56.939Z,58.64
2023-04-16T18:31:23.645Z,58.49
2023-04-16T18:33:57.315Z,58.93
2023-04-16T18:36:24.523Z,58.95
2023-04-16T18:39:01.127Z,58.99
2023-04-16T18:41:38.158Z,59.19
2023-04-16T18:44:04.852Z,58.68
2023-04-16T18:46:31.509Z,59.38
2023-04-16T18:48:59.118Z,59.48
2023-04-16T18:51:27.370Z,59.77
2023-04-16T18:53:53.962Z,59.09
2023-04-16T18:56:20.849Z,59.54
2023-04-16T18:58:47.852Z,59.73
2023-04-16T19:01:14.492Z,59.31
2023-04-16T19:03:41.198Z,59.62
2023-04-16T19:06:08.091Z,59.70
2023-04-16T19:08:34.653Z,59.43
2023-04-16T19:11:01.198Z,59.70
2023-04-16T19:13:27.953Z,60.25
2023-04-16T19:15:59.772Z,60.32
2023-04-16T19:18:26.700Z,60.59
2023-04-16T19:21:01.535Z,59.75
2023-04-16T19:23:28.518Z,60.51
2023-04-16T19:25:56.730Z,60.66
2023-04-16T19:28:23.917Z,60.25
2023-04-16T19:30:51.533Z,59.67
2023-04-16T19:33:18.979Z,60.57
2023-04-16T19:35:46.395Z,60.83
2023-04-16T19:38:13.136Z,60.43
2023-04-16T19:40:40.376Z,60.59
2023-04-16T19:43:07.017Z,60.11
2023-04-16T19:45:33.600Z,60.48
2023-04-16T19:48:00.297Z,60.38
2023-04-16T19:50:26.917Z,60.20
2023-04-16T19:52:53.450Z,60.39
2023-04-16T19:55:20.140Z,61.07
2023-04-16T19:57:48.237Z,61.51
2023-04-16T20:00:15.270Z,61.01
2023-04-16T20:02:42.074Z,60.71
2023-04-16T20:05:09.304Z,61.14
2023-04-16T20:07:35.949Z,61.32
2023-04-16T20:10:03.118Z,61.38
2023-04-16T20:12:29.756Z,61.26
2023-04-16T20:14:56.326Z,60.94
2023-04-16T20:17:22.898Z,61.77
2023-04-16T20:19:51.243Z,61.13
2023-04-16T20:22:18.802Z,61.51
2023-04-16T20:24:47.775Z,61.66
2023-04-16T20:27:15.301Z,62.00
2023-04-16T20:29:42.048Z,61.72
2023-04-16T20:32:08.595Z,61.45
2023-04-16T20:34:36.684Z,61.55
2023-04-16T20:37:04.535Z,61.61
2023-04-16T20:39:34.260Z,62.07
2023-04-16T20:42:04.151Z,62.19
2023-04-16T20:44:40.365Z,61.90
2023-04-16T20:47:08.420Z,62.48
2023-04-16T20:49:35.367Z,62.29
2023-04-16T20:52:02.752Z,63.12
2023-04-16T20:54:30.176Z,61.86
2023-04-16T20:56:57.752Z,62.30
2023-04-16T20:59:24.960Z,62.11
2023-04-16T21:01:52.903Z,63.18
2023-04-16T21:04:19.612Z,62.19
2023-04-16T21:06:46.756Z,62.97
2023-04-16T21:09:13.460Z,62.04
2023-04-16T21:11:40.438Z,63.33
2023-04-16T21:14:07.045Z,63.08
2023-04-16T21:16:33.673Z,63.44
2023-04-16T21:19:00.268Z,62.49
2023-04-16T21:21:27.536Z,63.65
2023-04-16T21:23:54.124Z,62.88
2023-04-16T21:26:21.011Z,63.50
2023-04-16T21:28:47.576Z,63.33
2023-04-16T21:31:14.164Z,63.75
2023-04-16T21:33:40.822Z,63.77
2023-04-16T21:36:07.627Z,63.64
2023-04-16T21:38:34.199Z,64.00
2023-04-16T21:41:01.928Z,63.15
2023-04-16T21:43:32.603Z,63.37
2023-04-16T21:45:59.783Z,63.82
2023-04-16T21:48:27.072Z,62.80
2023-04-16T21:50:56.140Z,63.25
2023-04-16T21:53:22.686Z,63.59
2023-04-16T21:55:49.247Z,63.50
2023-04-16T21:58:15.863Z,62.98
2023-04-16T22:00:42.535Z,64.11
2023-04-16T22:03:12.445Z,63.31
2023-04-16T22:05:39.275Z,64.30
2023-04-16T22:08:23.591Z,64.18
2023-04-16T22:10:51.496Z,63.44
2023-04-16T22:13:18.230Z,63.30
2023-04-16T22:15:44.795Z,63.97
2023-04-16T22:18:11.497Z,63.39
2023-04-16T22:20:39.299Z,63.30
2023-04-16T22:23:06.938Z,64.34
2023-04-16T22:25:33.681Z,63.48
2023-04-16T22:28:01.603Z,63.53
2023-04-16T22:30:28.343Z,64.20
2023-04-16T22:32:55.265Z,64.09
2023-04-16T22:35:21.995Z,63.39
2023-04-16T22:37:48.610Z,63.36
2023-04-16T22:40:15.964Z,63.36
2023-04-16T22:42:42.724Z,63.26
2023-04-16T22:45:09.697Z,64.37
2023-04-16T22:47:36.436Z,64.35
2023-04-16T22:50:03.309Z,64.48
2023-04-16T22:52:29.967Z,64.57
2023-04-16T22:54:56.518Z,63.28
2023-04-16T22:57:25.575Z,63.27
2023-04-16T22:59:53.177Z,63.63
2023-04-16T23:02:21.297Z,64.21
2023-04-16T23:04:48.085Z,64.16
2023-04-16T23:07:15.590Z,64.09
2023-04-16T23:09:42.700Z,65.13
2023-04-16T23:12:09.384Z,64.21
2023-04-16T23:14:37.035Z,64.08
2023-04-16T23:17:03.811Z,64.28
2023-04-16T23:19:31.279Z,65.57
2023-04-16T23:21:57.904Z,65.49
2023-04-16T23:24:24.517Z,65.69
2023-04-16T23:26:52.475Z,64.84
2023-04-16T23:29:20.751Z,65.11
2023-04-16T23:31:47.725Z,64.86
2023-04-16T23:34:14.695Z,65.16
2023-04-16T23:36:41.393Z,65.90
2023-04-16T23:39:07.957Z,65.90
2023-04-16T23:41:34.800Z,65.59
2023-04-16T23:44:01.425Z,65.70
2023-04-16T23:46:27.996Z,66.15
2023-04-16T23:48:55.426Z,65.02
2023-04-16T23:51:22.324Z,65.93
2023-04-16T23:53:48.930Z,66.39
2023-04-16T23:56:15.970Z,65.15
2023-04-16T23:58:42.529Z,65.13
